Time;durP1;ratioP1;P1;durP2;ratioP2;P2;SDS_P1;SDS_P2;PMS_P1;PMS_P2;Temp;Humidity;BMP_temperature;BMP_pressure;BME280_temperature;BME280_humidity;BME280_pressure;Samples;Min_cycle;Max_cycle;Signal;HPM_P1;HPM_P2
2022/08/29 00:00:16;;;;;;;14.82;10.15;;;;;;;24.19;79.45;99182.22;5112037;28;20209;-56
2022/08/29 00:02:43;;;;;;;14.32;10.10;;;;;;;24.15;80.09;99188.78;5112432;28;20536;-56
2022/08/29 00:05:10;;;;;;;14.95;10.18;;;;;;;24.13;79.49;99186.28;5112014;27;20198;-57
2022/08/29 00:07:39;;;;;;;12.55;10.52;;;;;;;24.24;78.55;99188.81;5111914;28;20678;-56
2022/08/29 00:10:08;;;;;;;12.50;9.95;;;;;;;24.24;78.22;99199.44;5111883;28;20221;-56
2022/08/29 00:12:35;;;;;;;14.05;10.73;;;;;;;24.21;78.10;99193.53;5111751;28;20197;-56
2022/08/29 00:15:02;;;;;;;15.18;10.38;;;;;;;24.16;77.89;99196.56;5110865;28;20213;-55
2022/08/29 00:17:30;;;;;;;14.30;11.93;;;;;;;24.17;77.83;99197.41;5110495;28;20194;-56
2022/08/29 00:19:56;;;;;;;17.17;13.93;;;;;;;24.15;78.05;99196.75;5111554;28;20230;-57
2022/08/29 00:22:23;;;;;;;23.55;15.82;;;;;;;24.10;78.33;99194.50;5111895;28;20301;-56
2022/08/29 00:24:52;;;;;;;26.27;19.27;;;;;;;24.02;78.71;99204.13;5111757;28;20205;-56
2022/08/29 00:27:19;;;;;;;27.23;20.80;;;;;;;23.94;79.50;99201.28;5111518;28;20198;-64
2022/08/29 00:29:46;;;;;;;36.05;22.05;;;;;;;23.88;79.82;99198.22;5111436;28;20230;-62
2022/08/29 00:32:13;;;;;;;36.90;25.60;;;;;;;23.91;79.54;99198.94;5111455;28;20198;-64
2022/08/29 00:34:39;;;;;;;30.42;22.38;;;;;;;23.85;79.42;99195.84;5111291;28;20226;-62
2022/08/29 00:37:06;;;;;;;25.70;19.98;;;;;;;23.89;79.41;99193.75;5111393;28;20209;-63
2022/08/29 00:39:33;;;;;;;24.50;18.42;;;;;;;23.82;79.69;99192.59;5111360;28;20588;-55
2022/08/29 00:42:02;;;;;;;25.65;17.42;;;;;;;23.74;80.02;99193.28;5111244;28;20249;-55
2022/08/29 00:44:29;;;;;;;25.83;17.40;;;;;;;23.75;80.16;99196.78;5111231;28;20205;-55
2022/08/29 00:46:57;;;;;;;21.38;16.23;;;;;;;23.78;79.93;99200.00;5111334;28;20195;-55
2022/08/29 00:49:35;;;;;;;26.57;17.17;;;;;;;23.71;80.07;99196.22;5111187;28;20286;-55
2022/08/29 00:52:07;;;;;;;28.42;17.38;;;;;;;23.67;80.86;99202.78;5111165;28;20228;-55
2022/08/29 00:54:36;;;;;;;34.35;17.70;;;;;;;23.70;80.64;99209.63;5110880;28;20290;-56
2022/08/29 00:57:05;;;;;;;22.73;15.45;;;;;;;23.73;80.03;99212.81;5111314;28;20298;-55
2022/08/29 00:59:34;;;;;;;24.50;15.23;;;;;;;23.71;80.55;99209.47;5111092;28;20570;-55
2022/08/29 01:02:02;;;;;;;25.77;16.63;;;;;;;23.65;81.09;99210.00;5111100;28;20202;-55
2022/08/29 01:04:29;;;;;;;15.85;14.15;;;;;;;23.57;81.28;99198.41;5110871;28;20233;-55
2022/08/29 01:06:56;;;;;;;19.85;14.75;;;;;;;23.42;81.69;99184.66;5110626;28;20750;-55
2022/08/29 01:09:25;;;;;;;23.23;13.68;;;;;;;23.33;81.23;99183.66;5111075;28;20300;-55
2022/08/29 01:14:40;;;;;;;24.42;13.27;;;;;;;23.51;80.15;99205.06;5110749;28;20705;-55
2022/08/29 01:17:09;;;;;;;17.55;13.43;;;;;;;23.55;80.36;99203.84;5110678;28;20935;-61
2022/08/29 01:19:52;;;;;;;21.45;13.55;;;;;;;23.60;80.44;99214.03;5110200;28;20317;-62
2022/08/29 01:22:33;;;;;;;20.40;13.02;;;;;;;23.67;80.50;99207.22;5110430;28;20214;-62
2022/08/29 01:25:04;;;;;;;17.65;12.75;;;;;;;23.72;79.98;99211.13;5110499;28;20303;-64
2022/08/29 01:27:37;;;;;;;16.08;12.02;;;;;;;23.69;80.10;99208.78;5110411;28;20285;-61
2022/08/29 01:30:05;;;;;;;19.52;12.90;;;;;;;23.70;80.29;99204.31;5110219;28;20229;-61
2022/08/29 01:32:32;;;;;;;18.95;12.80;;;;;;;23.67;80.53;99205.41;5110163;28;20199;-55
2022/08/29 01:34:59;;;;;;;19.83;11.80;;;;;;;23.59;81.13;99209.72;5110696;28;20335;-55
2022/08/29 01:37:31;;;;;;;14.15;11.70;;;;;;;23.42;82.15;99200.53;5110567;28;20202;-56
2022/08/29 01:39:58;;;;;;;13.20;10.88;;;;;;;23.37;82.28;99211.53;5110513;28;20283;-55
2022/08/29 01:42:26;;;;;;;17.17;11.85;;;;;;;23.39;82.59;99211.41;5110123;28;20212;-56
2022/08/29 01:44:56;;;;;;;14.98;11.07;;;;;;;23.40;83.50;99215.72;5110413;28;20194;-56
2022/08/29 01:47:25;;;;;;;17.48;11.75;;;;;;;23.38;83.46;99209.72;5110068;28;20230;-56
2022/08/29 01:49:52;;;;;;;19.60;11.80;;;;;;;23.43;83.42;99204.88;5110048;28;20592;-54
2022/08/29 01:52:20;;;;;;;19.20;12.77;;;;;;;23.44;83.49;99199.44;5110439;28;20198;-55
2022/08/29 01:54:47;;;;;;;18.77;11.27;;;;;;;23.39;83.95;99198.16;5110037;28;20652;-55
2022/08/29 01:57:15;;;;;;;19.77;11.43;;;;;;;23.27;84.33;99204.50;5110031;28;20195;-55
2022/08/29 01:59:44;;;;;;;15.75;11.57;;;;;;;23.21;84.16;99211.19;5109780;28;20579;-56
2022/08/29 02:02:16;;;;;;;18.27;11.57;;;;;;;23.15;85.20;99196.66;5110081;28;20195;-63
2022/08/29 02:04:44;;;;;;;14.57;11.93;;;;;;;23.08;86.10;99187.56;5109954;28;20578;-62
2022/08/29 02:07:11;;;;;;;18.02;11.70;;;;;;;23.14;86.70;99202.06;5110053;28;20219;-62
2022/08/29 02:09:38;;;;;;;13.07;11.25;;;;;;;23.12;87.01;99199.56;5109796;28;20611;-63
2022/08/29 02:12:06;;;;;;;20.05;12.18;;;;;;;22.88;87.78;99164.59;5109927;28;20226;-56
2022/08/29 02:14:34;;;;;;;20.60;12.02;;;;;;;23.03;88.31;99204.78;5110045;28;20206;-56
2022/08/29 02:17:03;;;;;;;15.77;11.63;;;;;;;22.97;88.35;99202.69;5110069;28;20194;-54
2022/08/29 02:19:30;;;;;;;18.65;11.50;;;;;;;22.94;88.77;99201.13;5113761;28;20288;-54
2022/08/29 02:21:57;;;;;;;16.92;12.13;;;;;;;23.01;88.83;99207.59;5113806;28;20190;-55
2022/08/29 02:24:24;;;;;;;13.65;11.90;;;;;;;23.05;88.99;99200.22;5113890;28;20198;-55
2022/08/29 02:26:52;;;;;;;21.23;11.90;;;;;;;23.06;89.14;99205.38;5113941;28;20278;-56
2022/08/29 02:29:19;;;;;;;13.43;11.77;;;;;;;23.03;89.96;99200.34;5113944;28;20198;-56
2022/08/29 02:31:45;;;;;;;19.65;12.45;;;;;;;23.10;89.54;99206.81;5113916;28;20226;-62
2022/08/29 02:34:14;;;;;;;17.55;11.55;;;;;;;23.15;89.07;99206.38;5113851;28;20590;-55
2022/08/29 02:36:41;;;;;;;14.27;12.07;;;;;;;23.04;89.04;99194.06;5113559;28;20197;-56
2022/08/29 02:39:08;;;;;;;18.25;11.82;;;;;;;23.16;88.63;99205.44;5114015;28;20601;-56
2022/08/29 02:41:36;;;;;;;17.35;11.55;;;;;;;23.10;88.64;99195.38;5113673;28;20221;-61
2022/08/29 02:44:03;;;;;;;20.83;12.45;;;;;;;23.17;89.26;99217.69;5113730;28;20199;-63
2022/08/29 02:46:30;;;;;;;16.75;11.98;;;;;;;23.00;90.23;99215.66;5113767;28;20304;-62
2022/08/29 02:48:58;;;;;;;18.17;11.45;;;;;;;23.01;90.58;99223.47;5113444;28;20201;-64
2022/08/29 02:51:30;;;;;;;20.20;11.13;;;;;;;23.11;90.00;99218.22;5113444;28;20661;-62
2022/08/29 02:53:58;;;;;;;18.27;10.73;;;;;;;23.10;89.36;99220.03;5113579;28;20194;-62
2022/08/29 02:56:25;;;;;;;18.38;10.57;;;;;;;23.13;89.20;99226.88;5113317;28;20199;-61
2022/08/29 02:58:52;;;;;;;24.50;11.63;;;;;;;23.08;89.75;99229.91;5113421;28;20314;-61
2022/08/29 03:01:20;;;;;;;12.38;10.60;;;;;;;23.17;88.13;99234.44;5113342;28;20208;-62
2022/08/29 03:03:49;;;;;;;22.60;11.38;;;;;;;23.29;87.20;99237.00;5113073;28;20558;-62
2022/08/29 03:06:16;;;;;;;19.70;12.10;;;;;;;23.21;87.17;99242.97;5113220;28;20601;-60
2022/08/29 03:08:44;;;;;;;16.15;11.38;;;;;;;23.11;87.37;99244.72;5113220;28;20197;-53
2022/08/29 03:11:11;;;;;;;22.13;11.70;;;;;;;23.01;88.25;99255.25;5113001;28;20221;-54
2022/08/29 03:13:38;;;;;;;17.45;11.82;;;;;;;22.94;88.53;99247.91;5112886;28;20201;-53
2022/08/29 03:16:05;;;;;;;17.23;11.82;;;;;;;22.95;88.44;99258.38;5113005;28;20578;-55
2022/08/29 03:18:32;;;;;;;16.63;11.63;;;;;;;22.97;88.31;99261.75;5111666;28;20222;-55
2022/08/29 03:20:59;;;;;;;21.13;12.18;;;;;;;22.96;88.16;99261.88;5111603;28;20201;-64
2022/08/29 03:23:26;;;;;;;21.63;11.45;;;;;;;22.85;89.08;99254.84;5112266;28;20688;-62
2022/08/29 03:25:55;;;;;;;24.58;11.63;;;;;;;22.86;89.54;99255.69;5112769;28;20705;-63
2022/08/29 03:28:22;;;;;;;25.95;12.90;;;;;;;22.87;89.30;99258.19;5107277;28;20190;-63
2022/08/29 03:30:49;;;;;;;25.83;12.60;;;;;;;22.83;89.96;99255.91;5110064;28;20661;-63
2022/08/29 03:33:17;;;;;;;17.50;13.07;;;;;;;22.78;90.95;99256.31;5111697;28;20199;-63
2022/08/29 03:35:44;;;;;;;21.52;12.77;;;;;;;22.76;91.35;99252.97;5091908;28;20559;-64
2022/08/29 03:38:11;;;;;;;21.73;11.43;;;;;;;22.53;91.98;99230.19;5092075;28;20195;-63
2022/08/29 03:40:41;;;;;;;20.38;12.23;;;;;;;22.70;91.64;99246.31;5092139;28;20244;-63
2022/08/29 03:43:10;;;;;;;17.42;11.60;;;;;;;22.78;90.95;99253.69;5091984;28;20196;-63
2022/08/29 03:45:37;;;;;;;21.40;12.52;;;;;;;22.79;91.31;99256.19;5091959;28;20291;-56
2022/08/29 03:48:05;;;;;;;26.00;12.02;;;;;;;22.76;91.46;99255.59;5092099;28;20199;-60
2022/08/29 03:50:32;;;;;;;21.15;12.52;;;;;;;22.76;91.57;99251.16;5091737;28;20199;-56
2022/08/29 03:53:00;;;;;;;26.35;12.85;;;;;;;22.75;91.19;99254.75;5091919;28;20207;-55
2022/08/29 03:55:26;;;;;;;20.40;13.70;;;;;;;22.73;90.92;99254.00;5091726;28;20458;-63
2022/08/29 03:57:55;;;;;;;16.23;12.68;;;;;;;22.70;90.74;99248.13;5108888;28;20210;-64
2022/08/29 04:00:23;;;;;;;22.30;14.00;;;;;;;22.72;90.78;99254.13;5111207;28;20233;-64
2022/08/29 04:02:52;;;;;;;21.65;13.40;;;;;;;22.78;90.57;99251.03;5111144;28;20198;-64
2022/08/29 04:05:19;;;;;;;18.30;12.70;;;;;;;22.84;90.60;99255.78;5111007;28;20199;-64
2022/08/29 04:07:49;;;;;;;26.17;13.30;;;;;;;22.89;90.83;99268.66;5110928;28;20518;-64
2022/08/29 04:10:19;;;;;;;31.15;13.70;;;;;;;22.85;90.99;99267.22;5110540;28;20591;-64
2022/08/29 04:12:46;;;;;;;28.15;13.70;;;;;;;22.77;91.00;99258.13;5111313;28;20640;-59
2022/08/29 04:15:13;;;;;;;24.65;13.77;;;;;;;22.80;91.32;99278.19;5111222;28;20201;-60
2022/08/29 04:17:42;;;;;;;19.08;12.52;;;;;;;22.86;90.12;99282.13;5111342;28;20224;-57
2022/08/29 04:20:11;;;;;;;21.98;13.30;;;;;;;22.82;90.32;99263.00;5111232;28;20321;-53
2022/08/29 04:22:40;;;;;;;31.27;13.68;;;;;;;23.05;90.18;99287.56;5111774;28;20203;-53
2022/08/29 04:25:10;;;;;;;25.00;14.10;;;;;;;23.13;90.61;99290.44;5111548;28;20190;-55
2022/08/29 04:27:38;;;;;;;27.45;13.57;;;;;;;23.32;89.92;99295.84;5111976;28;20587;-54
2022/08/29 04:30:08;;;;;;;33.65;14.75;;;;;;;23.51;88.63;99285.38;5112027;28;20202;-54
2022/08/29 04:32:35;;;;;;;32.72;14.70;;;;;;;24.13;85.74;99307.41;5111554;28;20674;-53
2022/08/29 04:35:04;;;;;;;25.70;14.88;;;;;;;24.73;82.06;99306.41;5111639;28;20204;-53
2022/08/29 04:37:31;;;;;;;30.05;15.55;;;;;;;25.27;78.60;99313.00;5111085;28;20198;-54
2022/08/29 04:39:58;;;;;;;28.35;15.20;;;;;;;25.79;75.21;99314.28;5111120;28;20205;-54
2022/08/29 04:42:25;;;;;;;31.60;15.30;;;;;;;26.34;72.43;99314.34;5111085;28;20204;-54
2022/08/29 04:44:52;;;;;;;22.65;14.02;;;;;;;26.76;68.45;99302.13;5110442;28;20190;-53
2022/08/29 04:47:21;;;;;;;23.73;14.25;;;;;;;27.42;65.33;99317.72;5111416;28;20274;-54
2022/08/29 04:49:49;;;;;;;19.55;13.50;;;;;;;27.69;63.48;99324.72;5110964;28;20217;-53
2022/08/29 04:52:18;;;;;;;21.05;12.77;;;;;;;27.32;63.69;99332.09;5111260;28;20302;-53
2022/08/29 04:54:44;;;;;;;24.23;14.02;;;;;;;26.56;66.76;99321.06;5110885;28;20221;-54
2022/08/29 04:57:11;;;;;;;22.73;15.00;;;;;;;25.92;69.84;99325.44;5111189;28;20214;-54
2022/08/29 04:59:38;;;;;;;26.90;14.32;;;;;;;25.73;70.92;99328.19;5111011;28;20199;-53
2022/08/29 05:02:05;;;;;;;23.98;15.52;;;;;;;25.55;71.48;99314.75;5111011;28;20190;-53
2022/08/29 05:04:32;;;;;;;28.65;18.27;;;;;;;25.33;72.93;99323.91;5110652;28;20297;-53
2022/08/29 05:06:59;;;;;;;33.50;23.50;;;;;;;24.93;75.48;99320.59;5110846;28;20202;-53
2022/08/29 05:09:28;;;;;;;38.47;24.50;;;;;;;24.78;76.39;99328.09;5110814;28;20201;-53
2022/08/29 05:11:54;;;;;;;37.47;27.23;;;;;;;24.68;77.32;99327.25;5110817;28;20235;-53
2022/08/29 05:14:22;;;;;;;37.28;26.70;;;;;;;24.66;77.92;99328.34;5110695;28;20199;-60
2022/08/29 05:16:48;;;;;;;42.40;28.40;;;;;;;24.60;78.92;99322.59;5110534;28;20290;-61
2022/08/29 05:19:16;;;;;;;46.20;30.08;;;;;;;24.87;77.90;99321.94;5110441;28;20313;-61
2022/08/29 05:21:43;;;;;;;49.88;30.50;;;;;;;25.69;74.42;99340.09;5110790;28;20581;-61
2022/08/29 05:24:12;;;;;;;43.95;29.38;;;;;;;27.14;67.25;99341.97;5110792;28;20726;-61
2022/08/29 05:26:43;;;;;;;34.80;26.20;;;;;;;28.31;60.78;99344.09;5110565;28;20194;-61
2022/08/29 05:29:12;;;;;;;38.65;25.90;;;;;;;29.34;57.28;99345.44;5110722;28;20202;-61
2022/08/29 05:31:41;;;;;;;36.38;24.40;;;;;;;30.74;52.40;99355.59;5110253;28;20225;-61
2022/08/29 05:34:09;;;;;;;37.80;24.67;;;;;;;32.21;47.71;99351.47;5110598;28;20252;-61
2022/08/29 05:36:36;;;;;;;36.00;24.02;;;;;;;33.65;43.60;99356.69;5110398;28;20653;-61
2022/08/29 05:39:03;;;;;;;27.98;18.73;;;;;;;33.95;42.43;99354.66;5110291;28;20191;-61
2022/08/29 05:41:30;;;;;;;31.52;18.63;;;;;;;34.27;41.61;99363.97;5110196;28;20650;-61
2022/08/29 05:43:59;;;;;;;24.25;16.75;;;;;;;34.76;40.45;99368.34;5110148;28;20286;-61
2022/08/29 05:46:26;;;;;;;21.15;15.63;;;;;;;35.14;39.05;99372.13;5110041;28;20597;-62
2022/08/29 05:48:53;;;;;;;24.00;14.45;;;;;;;35.47;37.92;99355.97;5110144;28;20205;-62
2022/08/29 05:51:23;;;;;;;16.48;11.80;;;;;;;36.08;35.74;99371.91;5110225;28;20261;-54
2022/08/29 05:53:50;;;;;;;16.05;10.70;;;;;;;36.79;34.50;99371.06;5109403;28;20281;-55
2022/08/29 05:56:26;;;;;;;16.20;9.75;;;;;;;37.07;33.88;99374.22;5110063;28;20226;-53
2022/08/29 05:58:53;;;;;;;15.35;10.40;;;;;;;36.86;33.64;99374.56;5109874;28;20579;-54
2022/08/29 06:01:24;;;;;;;12.45;10.45;;;;;;;36.86;34.33;99383.50;5110092;28;20193;-54
2022/08/29 06:03:52;;;;;;;20.95;11.23;;;;;;;37.31;33.57;99378.84;5110129;28;20280;-54
2022/08/29 06:06:21;;;;;;;21.00;12.13;;;;;;;37.54;33.32;99382.84;5110219;28;20658;-55
2022/08/29 06:08:48;;;;;;;23.95;12.23;;;;;;;37.70;33.02;99374.97;5109242;28;20564;-55
2022/08/29 06:11:17;;;;;;;19.23;12.63;;;;;;;37.67;33.76;99386.28;5108441;28;20661;-54
2022/08/29 06:13:44;;;;;;;23.63;12.68;;;;;;;37.87;33.47;99382.56;5109044;28;20197;-55
2022/08/29 06:16:12;;;;;;;19.52;12.85;;;;;;;38.39;32.78;99383.84;5109602;28;20665;-54
2022/08/29 06:18:41;;;;;;;20.50;11.93;;;;;;;38.93;31.84;99387.56;5109322;28;20328;-54
2022/08/29 06:21:10;;;;;;;26.40;12.00;;;;;;;39.26;30.95;99387.94;5109300;28;20687;-54
2022/08/29 06:23:37;;;;;;;16.33;11.85;;;;;;;40.09;30.29;99381.50;5109324;28;20212;-54
2022/08/29 06:26:05;;;;;;;20.48;12.05;;;;;;;40.80;29.25;99386.56;5109744;28;20193;-54
2022/08/29 06:28:33;;;;;;;27.05;12.85;;;;;;;40.35;29.29;99385.63;5109962;28;20673;-54
2022/08/29 06:31:05;;;;;;;19.55;12.77;;;;;;;39.64;30.77;99384.81;5109850;28;20552;-54
2022/08/29 06:33:32;;;;;;;25.92;11.23;;;;;;;39.50;30.96;99384.22;5109782;28;20253;-54
2022/08/29 06:36:01;;;;;;;19.33;10.35;;;;;;;39.30;31.04;99383.66;5109356;28;20204;-57
2022/08/29 06:38:28;;;;;;;17.33;10.93;;;;;;;39.54;31.05;99377.25;5109423;28;20194;-54
2022/08/29 06:40:55;;;;;;;13.48;10.05;;;;;;;39.33;31.67;99380.50;5109374;28;20578;-54
2022/08/29 06:43:22;;;;;;;16.15;10.15;;;;;;;40.00;30.97;99381.03;5109117;28;20189;-53
2022/08/29 06:45:49;;;;;;;19.63;9.65;;;;;;;40.29;29.52;99383.88;5109233;28;20685;-53
2022/08/29 06:48:17;;;;;;;19.67;9.23;;;;;;;40.09;29.49;99378.78;5108189;28;20284;-53
2022/08/29 06:50:43;;;;;;;15.07;8.45;;;;;;;39.78;29.53;99377.25;5105386;28;20256;-54
2022/08/29 06:53:12;;;;;;;16.45;9.43;;;;;;;39.61;30.13;99379.88;5108588;28;20659;-54
2022/08/29 06:55:39;;;;;;;15.27;10.10;;;;;;;39.52;30.82;99367.66;5108166;28;20194;-54
2022/08/29 06:58:06;;;;;;;20.30;9.40;;;;;;;40.12;29.62;99389.19;5108520;28;20277;-54
2022/08/29 07:00:33;;;;;;;17.60;10.35;;;;;;;40.16;29.43;99395.81;5108290;28;20193;-54
2022/08/29 07:03:00;;;;;;;13.68;7.75;;;;;;;40.20;29.63;99399.69;5108144;28;20197;-54
2022/08/29 07:05:28;;;;;;;18.08;9.10;;;;;;;40.30;29.24;99390.97;5111835;28;20190;-54
2022/08/29 07:07:55;;;;;;;10.68;8.63;;;;;;;40.71;29.08;99388.00;5112020;28;20194;-54
2022/08/29 07:10:23;;;;;;;15.63;8.07;;;;;;;41.55;27.90;99393.63;5112031;28;20661;-62
2022/08/29 07:12:50;;;;;;;18.85;8.85;;;;;;;41.92;27.04;99399.34;5111662;28;20217;-54
2022/08/29 07:15:18;;;;;;;9.20;8.48;;;;;;;42.62;26.45;99404.16;5112114;28;20711;-54
2022/08/29 07:17:46;;;;;;;15.75;10.10;;;;;;;43.26;25.28;99393.38;5109317;28;20650;-55
2022/08/29 07:20:13;;;;;;;22.58;11.95;;;;;;;43.47;24.36;99392.44;5111518;27;20361;-55
2022/08/29 07:22:40;;;;;;;16.63;9.77;;;;;;;42.99;25.25;99394.22;5111341;28;20243;-55
2022/08/29 07:25:09;;;;;;;15.77;9.55;;;;;;;43.70;25.01;99394.00;5111815;28;20222;-55
2022/08/29 07:27:37;;;;;;;13.98;7.78;;;;;;;43.38;24.38;99394.00;5111520;28;20585;-54
2022/08/29 07:30:05;;;;;;;17.27;7.63;;;;;;;42.53;26.43;99394.75;5109368;28;20662;-54
2022/08/29 07:32:32;;;;;;;16.15;8.02;;;;;;;43.31;24.68;99387.97;5112284;28;20222;-54
2022/08/29 07:34:59;;;;;;;13.27;7.32;;;;;;;43.28;25.01;99388.47;5112475;28;20198;-55
2022/08/29 07:37:26;;;;;;;17.58;7.85;;;;;;;43.31;25.08;99390.69;5111785;28;20186;-55
2022/08/29 07:39:53;;;;;;;14.32;7.72;;;;;;;43.69;24.36;99398.66;5111218;28;20190;-61
2022/08/29 07:42:20;;;;;;;15.80;8.15;;;;;;;43.32;24.79;99390.44;5111337;28;20810;-62
2022/08/29 07:44:48;;;;;;;16.45;7.78;;;;;;;42.39;25.41;99389.69;5112240;28;20194;-62
2022/08/29 07:47:15;;;;;;;14.80;7.47;;;;;;;42.87;25.26;99390.81;5112435;28;20197;-62
2022/08/29 07:49:42;;;;;;;18.02;8.15;;;;;;;42.92;25.48;99392.75;5112145;28;20197;-63
2022/08/29 07:52:09;;;;;;;15.88;7.93;;;;;;;43.44;24.69;99391.09;5112401;28;20303;-65
2022/08/29 07:54:37;;;;;;;18.30;7.38;;;;;;;43.51;24.51;99388.09;5112245;28;20198;-62
2022/08/29 07:57:04;;;;;;;17.08;7.28;;;;;;;43.92;23.94;99397.44;5112123;28;20206;-62
2022/08/29 07:59:31;;;;;;;12.52;7.22;;;;;;;44.65;22.65;99386.59;5111626;28;20273;-62
2022/08/29 08:01:59;;;;;;;11.48;7.20;;;;;;;45.43;22.46;99387.28;5111752;28;20201;-63
2022/08/29 08:04:27;;;;;;;14.77;7.72;;;;;;;45.42;22.39;99383.69;5112183;28;20225;-62
2022/08/29 08:06:54;;;;;;;15.75;7.28;;;;;;;45.52;22.07;99388.38;5112270;28;20201;-55
2022/08/29 08:09:21;;;;;;;13.30;9.88;;;;;;;45.86;21.73;99378.44;5112022;28;20198;-56
2022/08/29 08:11:48;;;;;;;13.57;11.10;;;;;;;45.33;21.64;99371.66;5111953;28;20198;-54
2022/08/29 08:14:15;;;;;;;13.32;11.82;;;;;;;44.89;22.52;99367.78;5111669;28;20208;-54
2022/08/29 08:16:42;;;;;;;13.77;10.00;;;;;;;45.58;21.87;99370.00;5111099;28;20677;-62
2022/08/29 08:19:11;;;;;;;15.90;9.38;;;;;;;45.19;22.26;99371.38;5111348;28;20719;-62
2022/08/29 08:21:39;;;;;;;18.25;9.25;;;;;;;44.85;22.28;99373.78;5110958;28;20198;-62
2022/08/29 08:24:06;;;;;;;22.08;10.32;;;;;;;44.77;22.39;99370.75;5111349;28;20267;-62
2022/08/29 08:26:33;;;;;;;13.90;9.65;;;;;;;45.57;21.66;99371.94;5111508;28;20236;-62
2022/08/29 08:29:00;;;;;;;14.65;9.75;;;;;;;46.28;20.80;99374.50;5111400;28;20197;-62
2022/08/29 08:31:27;;;;;;;15.35;9.25;;;;;;;46.84;20.63;99371.50;5111661;28;20673;-62
2022/08/29 08:33:54;;;;;;;14.02;8.85;;;;;;;47.25;20.50;99370.09;5111258;28;20217;-62
2022/08/29 08:36:25;;;;;;;17.40;10.15;;;;;;;46.19;20.77;99366.00;5111063;28;20666;-62
2022/08/29 08:38:53;;;;;;;15.20;9.38;;;;;;;45.45;21.52;99365.88;5110266;28;20216;-62
2022/08/29 08:41:35;;;;;;;12.60;8.90;;;;;;;45.18;22.07;99361.50;5110546;28;20216;-61
2022/08/29 08:44:05;;;;;;;14.60;8.50;;;;;;;44.96;21.89;99366.41;5110070;28;20565;-61
2022/08/29 08:46:37;;;;;;;13.93;8.65;;;;;;;44.49;22.38;99359.16;5109845;28;20285;-53
2022/08/29 08:49:09;;;;;;;12.02;8.05;;;;;;;44.95;22.21;99362.00;5110034;28;20190;-54
2022/08/29 08:51:43;;;;;;;9.15;8.20;;;;;;;44.75;22.01;99356.50;5110650;28;20692;-54
2022/08/29 08:54:19;;;;;;;9.27;8.32;;;;;;;45.30;22.23;99366.72;5111274;28;20221;-54
2022/08/29 08:56:49;;;;;;;17.20;7.72;;;;;;;44.89;21.96;99356.81;5111082;28;20193;-54
2022/08/29 08:59:21;;;;;;;16.58;9.52;;;;;;;44.89;22.33;99351.34;5110937;28;20194;-54
2022/08/29 09:02:00;;;;;;;16.88;12.93;;;;;;;44.41;22.20;99351.47;5111325;28;20607;-54
2022/08/29 09:04:42;;;;;;;10.85;7.70;;;;;;;43.60;22.85;99345.56;5110392;28;20197;-55
2022/08/29 09:07:35;;;;;;;14.13;11.15;;;;;;;44.65;21.99;99343.59;5110649;28;20235;-54
2022/08/29 09:10:18;;;;;;;9.15;8.02;;;;;;;44.54;21.36;99341.09;5110642;28;20194;-55
2022/08/29 09:12:57;;;;;;;20.90;8.95;;;;;;;44.49;22.32;99331.78;5110525;28;20232;-54
2022/08/29 09:15:39;;;;;;;16.45;7.82;;;;;;;44.64;21.74;99332.91;5110603;28;20212;-55
2022/08/29 09:18:10;;;;;;;13.90;9.13;;;;;;;45.37;21.44;99336.28;5110442;28;20230;-57
2022/08/29 09:20:39;;;;;;;16.33;8.45;;;;;;;44.96;21.25;99328.03;5110290;28;20205;-55
2022/08/29 09:23:18;;;;;;;10.45;7.70;;;;;;;44.57;21.41;99332.38;5110367;28;20190;-54
2022/08/29 09:25:45;;;;;;;9.27;7.72;;;;;;;44.19;22.27;99339.06;5109511;28;20204;-53
2022/08/29 09:28:12;;;;;;;15.82;7.10;;;;;;;44.71;21.83;99330.72;5108785;28;20200;-55
2022/08/29 09:30:42;;;;;;;10.32;7.35;;;;;;;45.39;21.75;99323.13;5109152;28;21063;-55
2022/08/29 09:33:11;;;;;;;22.48;14.60;;;;;;;44.86;21.81;99320.66;5109794;28;20625;-55
2022/08/29 09:35:40;;;;;;;9.40;7.68;;;;;;;44.98;21.63;99319.56;5110086;28;20201;-63
2022/08/29 09:38:18;;;;;;;12.82;7.60;;;;;;;45.19;20.98;99323.97;5110162;28;20204;-63
2022/08/29 09:40:53;;;;;;;15.32;7.40;;;;;;;46.12;20.44;99320.78;5109091;28;20243;-63
2022/08/29 09:43:24;;;;;;;11.27;7.32;;;;;;;46.97;19.70;99324.94;5105942;28;20712;-61
2022/08/29 09:46:17;;;;;;;16.35;9.45;;;;;;;44.69;21.39;99321.97;5108315;28;20224;-60
2022/08/29 09:48:46;;;;;;;13.05;8.13;;;;;;;43.28;22.90;99311.97;5109134;27;20245;-54
2022/08/29 09:51:21;;;;;;;9.18;7.47;;;;;;;43.81;22.49;99309.03;5108820;28;20214;-54
2022/08/29 09:53:50;;;;;;;10.00;7.75;;;;;;;44.75;21.59;99299.00;5106751;27;20241;-55
2022/08/29 09:56:21;;;;;;;9.13;8.23;;;;;;;44.56;21.63;99308.81;5123159;27;20197;-55
2022/08/29 09:58:59;;;;;;;14.50;7.30;;;;;;;44.32;22.18;99303.81;5130768;27;20720;-54
2022/08/29 10:01:28;;;;;;;12.65;8.98;;;;;;;44.65;21.92;99293.50;5128927;27;20287;-54
2022/08/29 10:03:58;;;;;;;8.52;7.43;;;;;;;43.53;23.02;99289.44;5109358;28;20627;-55
2022/08/29 10:06:28;;;;;;;16.10;7.65;;;;;;;42.21;23.83;99269.97;5109686;28;20198;-56
2022/08/29 10:09:01;;;;;;;11.40;8.00;;;;;;;41.02;25.42;99285.09;5108588;28;20239;-56
2022/08/29 10:11:34;;;;;;;13.48;7.85;;;;;;;40.36;26.22;99276.56;5107192;28;20202;-54
2022/08/29 10:14:06;;;;;;;12.70;7.97;;;;;;;39.45;27.32;99263.75;5109060;28;20220;-61
2022/08/29 10:16:51;;;;;;;11.52;8.73;;;;;;;38.71;28.24;99260.56;5104758;28;20656;-57
2022/08/29 10:19:23;;;;;;;12.88;9.18;;;;;;;37.80;29.31;99258.00;5091796;28;20399;-62
2022/08/29 10:22:00;;;;;;;14.63;9.30;;;;;;;36.94;30.51;99257.94;5089408;28;20285;-61
2022/08/29 10:24:53;;;;;;;13.20;8.18;;;;;;;36.56;30.81;99244.47;5105132;28;20221;-62
2022/08/29 10:27:30;;;;;;;10.48;8.10;;;;;;;36.57;31.12;99246.94;5089233;28;20194;-62
2022/08/29 10:30:06;;;;;;;20.42;11.60;;;;;;;36.32;31.88;99248.78;5099986;28;20221;-61
2022/08/29 10:32:57;;;;;;;13.80;8.70;;;;;;;36.18;32.16;99242.59;5108285;28;20196;-60
2022/08/29 10:35:29;;;;;;;11.55;8.43;;;;;;;36.01;31.88;99239.53;5107937;28;20285;-55
2022/08/29 10:37:59;;;;;;;16.55;8.40;;;;;;;35.86;31.93;99241.69;5108503;28;20237;-55
2022/08/29 10:40:36;;;;;;;15.75;8.80;;;;;;;35.93;32.37;99236.25;5112484;28;20654;-55
2022/08/29 10:43:23;;;;;;;12.00;8.68;;;;;;;35.91;32.27;99238.34;5112545;28;20583;-55
2022/08/29 10:46:04;;;;;;;14.95;9.02;;;;;;;36.05;32.06;99241.81;5109612;28;20216;-61
2022/08/29 10:48:38;;;;;;;20.75;8.82;;;;;;;36.11;31.42;99230.16;5109640;28;20197;-60
2022/08/29 10:51:17;;;;;;;10.45;8.13;;;;;;;36.12;31.48;99223.72;5112501;28;20595;-61
2022/08/29 10:53:47;;;;;;;13.65;8.18;;;;;;;36.11;31.06;99222.06;5112177;28;20593;-60
2022/08/29 10:56:22;;;;;;;11.95;7.93;;;;;;;36.01;31.51;99222.50;5109913;28;20714;-60
2022/08/29 10:59:03;;;;;;;12.80;9.10;;;;;;;35.93;31.35;99223.59;5111774;28;20566;-61
2022/08/29 11:01:36;;;;;;;13.15;7.85;;;;;;;36.03;31.42;99221.25;5113174;28;20230;-61
2022/08/29 11:04:16;;;;;;;16.02;7.53;;;;;;;36.02;31.24;99218.75;5111653;28;20244;-61
2022/08/29 11:06:50;;;;;;;9.70;8.30;;;;;;;36.06;31.00;99216.47;5109793;28;20325;-61
2022/08/29 11:09:22;;;;;;;16.65;8.07;;;;;;;36.14;30.36;99213.50;5108854;28;20191;-60
2022/08/29 11:12:02;;;;;;;12.93;7.60;;;;;;;36.09;29.97;99211.47;5111741;28;20217;-60
2022/08/29 11:14:35;;;;;;;11.48;7.15;;;;;;;35.94;30.07;99200.94;5110526;28;20301;-60
2022/08/29 11:17:04;;;;;;;13.25;7.85;;;;;;;35.90;29.90;99198.84;5092375;28;20210;-54
2022/08/29 11:19:45;;;;;;;12.95;7.88;;;;;;;35.87;30.15;99194.75;5092143;28;20744;-53
2022/08/29 11:22:16;;;;;;;14.30;8.15;;;;;;;35.71;30.53;99194.34;5092714;28;20744;-54
2022/08/29 11:24:45;;;;;;;8.90;7.80;;;;;;;35.35;31.16;99165.19;5092504;28;20198;-55
2022/08/29 11:27:32;;;;;;;12.65;8.05;;;;;;;35.52;31.03;99175.31;5092361;28;20202;-55
2022/08/29 11:30:05;;;;;;;14.30;8.35;;;;;;;35.54;31.16;99167.00;5092262;28;20245;-53
2022/08/29 11:32:41;;;;;;;13.23;7.75;;;;;;;35.50;31.44;99163.06;5092126;28;20195;-53